sensor_id;sensor_type;location;lat;lon;timestamp;temperature;humidity
21762;DHT22;11203;50.870;20.682;2022-11-24T00:01:15;0.40;1.00
21762;DHT22;11203;50.870;20.682;2022-11-24T00:03:44;0.40;1.00
21762;DHT22;11203;50.870;20.682;2022-11-24T00:06:14;0.40;1.00
21762;DHT22;11203;50.870;20.682;2022-11-24T00:08:42;0.40;1.00
21762;DHT22;11203;50.870;20.682;2022-11-24T00:11:14;0.40;1.00
21762;DHT22;11203;50.870;20.682;2022-11-24T00:13:42;0.40;1.00
21762;DHT22;11203;50.870;20.682;2022-11-24T00:16:34;0.40;1.00
21762;DHT22;11203;50.870;20.682;2022-11-24T00:19:04;0.40;1.00
21762;DHT22;11203;50.870;20.682;2022-11-24T00:21:34;0.40;1.00
21762;DHT22;11203;50.870;20.682;2022-11-24T00:24:01;0.40;1.00
21762;DHT22;11203;50.870;20.682;2022-11-24T00:26:29;0.50;1.00
21762;DHT22;11203;50.870;20.682;2022-11-24T00:28:58;0.40;1.00
21762;DHT22;11203;50.870;20.682;2022-11-24T00:31:35;0.50;1.00
21762;DHT22;11203;50.870;20.682;2022-11-24T00:34:08;0.50;1.00
21762;DHT22;11203;50.870;20.682;2022-11-24T00:36:36;0.50;1.00
21762;DHT22;11203;50.870;20.682;2022-11-24T00:39:07;0.50;1.00
21762;DHT22;11203;50.870;20.682;2022-11-24T00:41:36;0.60;1.00
21762;DHT22;11203;50.870;20.682;2022-11-24T00:44:03;0.50;1.00
21762;DHT22;11203;50.870;20.682;2022-11-24T00:46:29;0.50;1.00
21762;DHT22;11203;50.870;20.682;2022-11-24T00:48:56;0.50;1.00
21762;DHT22;11203;50.870;20.682;2022-11-24T00:51:24;0.50;1.00
21762;DHT22;11203;50.870;20.682;2022-11-24T00:53:53;0.50;1.00
21762;DHT22;11203;50.870;20.682;2022-11-24T00:56:20;0.60;1.00
21762;DHT22;11203;50.870;20.682;2022-11-24T00:58:46;0.60;1.00
21762;DHT22;11203;50.870;20.682;2022-11-24T01:01:21;0.60;1.00
21762;DHT22;11203;50.870;20.682;2022-11-24T01:03:48;0.40;1.00
21762;DHT22;11203;50.870;20.682;2022-11-24T01:06:20;1.30;1.00
21762;DHT22;11203;50.870;20.682;2022-11-24T01:08:48;0.50;1.00
21762;DHT22;11203;50.870;20.682;2022-11-24T01:11:19;0.40;1.00
21762;DHT22;11203;50.870;20.682;2022-11-24T01:13:50;0.40;1.00
21762;DHT22;11203;50.870;20.682;2022-11-24T01:16:23;0.40;1.00
21762;DHT22;11203;50.870;20.682;2022-11-24T01:18:51;0.30;1.00
21762;DHT22;11203;50.870;20.682;2022-11-24T01:21:18;0.30;1.00
21762;DHT22;11203;50.870;20.682;2022-11-24T01:23:45;0.40;1.00
21762;DHT22;11203;50.870;20.682;2022-11-24T01:26:15;0.40;1.00
21762;DHT22;11203;50.870;20.682;2022-11-24T01:28:42;0.40;1.00
21762;DHT22;11203;50.870;20.682;2022-11-24T01:31:09;0.30;1.00
21762;DHT22;11203;50.870;20.682;2022-11-24T01:33:35;0.30;1.00
21762;DHT22;11203;50.870;20.682;2022-11-24T01:36:02;0.40;1.00
21762;DHT22;11203;50.870;20.682;2022-11-24T01:38:29;0.50;1.00
21762;DHT22;11203;50.870;20.682;2022-11-24T01:41:10;0.40;1.00
21762;DHT22;11203;50.870;20.682;2022-11-24T01:43:38;0.50;1.00
21762;DHT22;11203;50.870;20.682;2022-11-24T01:49:15;0.50;1.00
21762;DHT22;11203;50.870;20.682;2022-11-24T01:51:53;0.40;1.00
21762;DHT22;11203;50.870;20.682;2022-11-24T01:54:27;0.40;1.00
21762;DHT22;11203;50.870;20.682;2022-11-24T01:57:00;0.30;1.00
21762;DHT22;11203;50.870;20.682;2022-11-24T01:59:30;0.30;1.00
21762;DHT22;11203;50.870;20.682;2022-11-24T02:01:56;0.20;1.00
21762;DHT22;11203;50.870;20.682;2022-11-24T02:04:26;0.30;1.00
21762;DHT22;11203;50.870;20.682;2022-11-24T02:06:56;0.30;1.00
21762;DHT22;11203;50.870;20.682;2022-11-24T02:09:25;0.40;1.00
21762;DHT22;11203;50.870;20.682;2022-11-24T02:11:55;0.40;1.00
21762;DHT22;11203;50.870;20.682;2022-11-24T02:14:23;0.40;1.00
21762;DHT22;11203;50.870;20.682;2022-11-24T02:16:50;0.50;1.00
21762;DHT22;11203;50.870;20.682;2022-11-24T02:19:24;0.50;1.00
21762;DHT22;11203;50.870;20.682;2022-11-24T02:21:56;0.40;1.00
21762;DHT22;11203;50.870;20.682;2022-11-24T02:24:35;0.40;1.00
21762;DHT22;11203;50.870;20.682;2022-11-24T02:27:06;0.50;1.00
21762;DHT22;11203;50.870;20.682;2022-11-24T02:29:34;0.50;1.00
21762;DHT22;11203;50.870;20.682;2022-11-24T02:32:03;0.50;1.00
21762;DHT22;11203;50.870;20.682;2022-11-24T02:34:31;0.50;1.00
21762;DHT22;11203;50.870;20.682;2022-11-24T02:36:57;0.50;1.00
21762;DHT22;11203;50.870;20.682;2022-11-24T02:39:23;0.50;1.00
21762;DHT22;11203;50.870;20.682;2022-11-24T02:41:52;0.50;1.00
21762;DHT22;11203;50.870;20.682;2022-11-24T02:44:23;0.50;1.00
21762;DHT22;11203;50.870;20.682;2022-11-24T02:47:05;0.50;1.00
21762;DHT22;11203;50.870;20.682;2022-11-24T02:49:32;0.60;1.00
21762;DHT22;11203;50.870;20.682;2022-11-24T02:51:59;0.50;1.00
21762;DHT22;11203;50.870;20.682;2022-11-24T02:54:25;0.60;1.00
21762;DHT22;11203;50.870;20.682;2022-11-24T02:56:51;0.50;1.00
21762;DHT22;11203;50.870;20.682;2022-11-24T02:59:17;0.50;1.00
21762;DHT22;11203;50.870;20.682;2022-11-24T03:01:44;0.50;1.00
21762;DHT22;11203;50.870;20.682;2022-11-24T03:04:10;0.40;1.00
21762;DHT22;11203;50.870;20.682;2022-11-24T03:06:37;0.50;1.00
21762;DHT22;11203;50.870;20.682;2022-11-24T03:09:04;0.40;1.00
21762;DHT22;11203;50.870;20.682;2022-11-24T03:11:31;0.80;1.00
21762;DHT22;11203;50.870;20.682;2022-11-24T03:13:57;0.50;1.00
21762;DHT22;11203;50.870;20.682;2022-11-24T03:16:24;0.40;1.00
21762;DHT22;11203;50.870;20.682;2022-11-24T03:18:50;0.60;1.00
21762;DHT22;11203;50.870;20.682;2022-11-24T03:21:17;0.50;1.00
21762;DHT22;11203;50.870;20.682;2022-11-24T03:23:43;0.40;1.00
21762;DHT22;11203;50.870;20.682;2022-11-24T03:26:12;1.10;1.00
21762;DHT22;11203;50.870;20.682;2022-11-24T03:28:40;0.50;1.00
21762;DHT22;11203;50.870;20.682;2022-11-24T03:31:07;0.50;1.00
21762;DHT22;11203;50.870;20.682;2022-11-24T03:33:34;0.80;1.00
21762;DHT22;11203;50.870;20.682;2022-11-24T03:36:02;0.50;1.00
21762;DHT22;11203;50.870;20.682;2022-11-24T03:38:28;0.60;1.00
21762;DHT22;11203;50.870;20.682;2022-11-24T03:40:55;0.60;1.00
21762;DHT22;11203;50.870;20.682;2022-11-24T03:43:21;0.50;1.00
21762;DHT22;11203;50.870;20.682;2022-11-24T03:45:48;0.50;1.00
21762;DHT22;11203;50.870;20.682;2022-11-24T03:48:15;0.50;1.00
21762;DHT22;11203;50.870;20.682;2022-11-24T03:50:50;0.50;1.00
21762;DHT22;11203;50.870;20.682;2022-11-24T03:53:17;0.40;1.00
21762;DHT22;11203;50.870;20.682;2022-11-24T03:55:43;0.40;1.00
21762;DHT22;11203;50.870;20.682;2022-11-24T03:58:09;0.40;1.00
21762;DHT22;11203;50.870;20.682;2022-11-24T04:00:35;0.40;1.00
21762;DHT22;11203;50.870;20.682;2022-11-24T04:03:01;0.40;1.00
21762;DHT22;11203;50.870;20.682;2022-11-24T04:05:28;0.40;1.00
21762;DHT22;11203;50.870;20.682;2022-11-24T04:07:55;0.30;1.00
21762;DHT22;11203;50.870;20.682;2022-11-24T04:10:23;0.40;1.00
21762;DHT22;11203;50.870;20.682;2022-11-24T04:12:50;0.30;1.00
21762;DHT22;11203;50.870;20.682;2022-11-24T04:15:19;0.30;1.00
21762;DHT22;11203;50.870;20.682;2022-11-24T04:17:47;0.20;1.00
21762;DHT22;11203;50.870;20.682;2022-11-24T04:20:14;0.20;1.00
21762;DHT22;11203;50.870;20.682;2022-11-24T04:22:41;0.10;1.00
21762;DHT22;11203;50.870;20.682;2022-11-24T04:25:09;0.00;1.00
21762;DHT22;11203;50.870;20.682;2022-11-24T04:27:36;0.30;1.00
21762;DHT22;11203;50.870;20.682;2022-11-24T04:30:06;0.00;1.00
21762;DHT22;11203;50.870;20.682;2022-11-24T04:32:32;0.00;1.00
21762;DHT22;11203;50.870;20.682;2022-11-24T04:34:58;-0.10;1.00
21762;DHT22;11203;50.870;20.682;2022-11-24T04:37:24;-0.10;1.00
21762;DHT22;11203;50.870;20.682;2022-11-24T04:39:50;-0.10;1.00
21762;DHT22;11203;50.870;20.682;2022-11-24T04:42:16;0.00;1.00
21762;DHT22;11203;50.870;20.682;2022-11-24T04:44:43;-0.10;99.90
21762;DHT22;11203;50.870;20.682;2022-11-24T04:47:14;-0.10;1.00
21762;DHT22;11203;50.870;20.682;2022-11-24T04:49:42;-0.10;75.80
21762;DHT22;11203;50.870;20.682;2022-11-24T04:52:08;-0.10;99.90
21762;DHT22;11203;50.870;20.682;2022-11-24T04:54:34;-0.10;99.90
21762;DHT22;11203;50.870;20.682;2022-11-24T04:57:00;-0.20;99.90
21762;DHT22;11203;50.870;20.682;2022-11-24T04:59:26;-0.20;99.90
21762;DHT22;11203;50.870;20.682;2022-11-24T05:01:52;-0.30;99.90
21762;DHT22;11203;50.870;20.682;2022-11-24T05:04:19;-0.30;99.90
21762;DHT22;11203;50.870;20.682;2022-11-24T05:06:46;-0.30;1.00
21762;DHT22;11203;50.870;20.682;2022-11-24T05:09:14;-0.40;1.00
21762;DHT22;11203;50.870;20.682;2022-11-24T05:11:41;-0.40;1.00
21762;DHT22;11203;50.870;20.682;2022-11-24T05:14:08;-0.50;1.00
21762;DHT22;11203;50.870;20.682;2022-11-24T05:16:34;-0.50;1.00
21762;DHT22;11203;50.870;20.682;2022-11-24T05:19:00;-0.50;1.00
21762;DHT22;11203;50.870;20.682;2022-11-24T05:21:27;-0.50;1.00
21762;DHT22;11203;50.870;20.682;2022-11-24T05:23:53;-0.40;1.00
21762;DHT22;11203;50.870;20.682;2022-11-24T05:26:19;-0.50;1.00
21762;DHT22;11203;50.870;20.682;2022-11-24T05:28:45;-0.40;1.00
21762;DHT22;11203;50.870;20.682;2022-11-24T05:31:11;-0.40;1.00
21762;DHT22;11203;50.870;20.682;2022-11-24T05:33:37;-0.50;1.00
21762;DHT22;11203;50.870;20.682;2022-11-24T05:36:05;-0.40;1.00
21762;DHT22;11203;50.870;20.682;2022-11-24T05:38:32;-0.50;1.00
21762;DHT22;11203;50.870;20.682;2022-11-24T05:41:00;-0.50;1.00
21762;DHT22;11203;50.870;20.682;2022-11-24T05:43:29;-0.50;1.00
21762;DHT22;11203;50.870;20.682;2022-11-24T05:45:59;-0.50;1.00
21762;DHT22;11203;50.870;20.682;2022-11-24T05:48:26;-0.60;1.00
21762;DHT22;11203;50.870;20.682;2022-11-24T05:50:56;-0.50;1.00
21762;DHT22;11203;50.870;20.682;2022-11-24T05:53:23;-0.50;1.00
21762;DHT22;11203;50.870;20.682;2022-11-24T05:55:52;-0.60;1.00
21762;DHT22;11203;50.870;20.682;2022-11-24T05:58:19;-0.50;1.00
21762;DHT22;11203;50.870;20.682;2022-11-24T06:00:45;-0.60;1.00
21762;DHT22;11203;50.870;20.682;2022-11-24T06:03:11;-0.50;1.00
21762;DHT22;11203;50.870;20.682;2022-11-24T06:05:37;-0.40;1.00
21762;DHT22;11203;50.870;20.682;2022-11-24T06:08:04;-0.50;1.00
21762;DHT22;11203;50.870;20.682;2022-11-24T06:10:30;-0.20;1.00
21762;DHT22;11203;50.870;20.682;2022-11-24T06:12:56;-0.10;1.00
21762;DHT22;11203;50.870;20.682;2022-11-24T06:15:22;0.00;1.00
21762;DHT22;11203;50.870;20.682;2022-11-24T06:17:55;-0.10;1.00
21762;DHT22;11203;50.870;20.682;2022-11-24T06:20:22;-0.10;3.40
21762;DHT22;11203;50.870;20.682;2022-11-24T06:22:49;-0.20;99.90
21762;DHT22;11203;50.870;20.682;2022-11-24T06:25:15;-0.20;99.90
21762;DHT22;11203;50.870;20.682;2022-11-24T06:27:43;-0.40;99.90
21762;DHT22;11203;50.870;20.682;2022-11-24T06:30:10;-0.20;99.90
21762;DHT22;11203;50.870;20.682;2022-11-24T06:32:37;-0.40;99.90
21762;DHT22;11203;50.870;20.682;2022-11-24T06:35:04;-0.30;99.90
21762;DHT22;11203;50.870;20.682;2022-11-24T06:37:31;-0.30;99.90
21762;DHT22;11203;50.870;20.682;2022-11-24T06:39:57;-0.40;99.90
21762;DHT22;11203;50.870;20.682;2022-11-24T06:42:23;-0.30;99.90
21762;DHT22;11203;50.870;20.682;2022-11-24T06:44:49;-0.40;99.90
21762;DHT22;11203;50.870;20.682;2022-11-24T06:47:16;-0.40;99.90
21762;DHT22;11203;50.870;20.682;2022-11-24T06:49:42;-0.50;99.90
21762;DHT22;11203;50.870;20.682;2022-11-24T06:52:09;-0.50;99.90
21762;DHT22;11203;50.870;20.682;2022-11-24T06:54:35;-0.40;99.90
21762;DHT22;11203;50.870;20.682;2022-11-24T06:57:01;-0.40;99.90
21762;DHT22;11203;50.870;20.682;2022-11-24T06:59:27;-0.50;99.90
21762;DHT22;11203;50.870;20.682;2022-11-24T07:01:54;-0.40;99.90
21762;DHT22;11203;50.870;20.682;2022-11-24T07:04:20;-0.40;99.90
21762;DHT22;11203;50.870;20.682;2022-11-24T07:06:46;-0.50;99.90
21762;DHT22;11203;50.870;20.682;2022-11-24T07:09:12;-1.40;99.90
21762;DHT22;11203;50.870;20.682;2022-11-24T07:11:40;-0.40;99.90
21762;DHT22;11203;50.870;20.682;2022-11-24T07:14:06;-0.50;99.90
21762;DHT22;11203;50.870;20.682;2022-11-24T07:16:32;-0.40;99.90
21762;DHT22;11203;50.870;20.682;2022-11-24T07:18:58;-0.30;99.90
21762;DHT22;11203;50.870;20.682;2022-11-24T07:21:25;-0.40;99.90
21762;DHT22;11203;50.870;20.682;2022-11-24T07:23:54;-0.20;99.90
21762;DHT22;11203;50.870;20.682;2022-11-24T07:26:21;-0.30;99.90
21762;DHT22;11203;50.870;20.682;2022-11-24T07:28:49;-0.20;99.90
21762;DHT22;11203;50.870;20.682;2022-11-24T07:31:18;-0.20;99.90
21762;DHT22;11203;50.870;20.682;2022-11-24T07:33:49;-0.30;99.90
21762;DHT22;11203;50.870;20.682;2022-11-24T07:36:16;-0.30;99.90
21762;DHT22;11203;50.870;20.682;2022-11-24T07:38:43;-0.30;99.90
21762;DHT22;11203;50.870;20.682;2022-11-24T07:41:11;-0.40;99.90
21762;DHT22;11203;50.870;20.682;2022-11-24T07:43:38;-0.20;99.90
21762;DHT22;11203;50.870;20.682;2022-11-24T07:46:06;-0.30;99.90
21762;DHT22;11203;50.870;20.682;2022-11-24T07:48:34;-0.30;99.90
21762;DHT22;11203;50.870;20.682;2022-11-24T07:51:02;-0.30;99.90
21762;DHT22;11203;50.870;20.682;2022-11-24T07:53:30;-0.30;99.90
21762;DHT22;11203;50.870;20.682;2022-11-24T07:55:59;-0.30;99.90
21762;DHT22;11203;50.870;20.682;2022-11-24T07:58:27;-0.30;99.90
21762;DHT22;11203;50.870;20.682;2022-11-24T08:00:54;-0.40;99.90
21762;DHT22;11203;50.870;20.682;2022-11-24T08:03:21;-0.30;99.90
21762;DHT22;11203;50.870;20.682;2022-11-24T08:08:21;-0.30;99.90
21762;DHT22;11203;50.870;20.682;2022-11-24T08:10:47;-0.30;99.90
21762;DHT22;11203;50.870;20.682;2022-11-24T08:13:13;-0.30;99.90
21762;DHT22;11203;50.870;20.682;2022-11-24T08:15:39;-0.20;99.90
21762;DHT22;11203;50.870;20.682;2022-11-24T08:18:05;-0.30;99.90
21762;DHT22;11203;50.870;20.682;2022-11-24T08:20:31;-0.30;99.90
21762;DHT22;11203;50.870;20.682;2022-11-24T08:22:58;-0.20;99.90
21762;DHT22;11203;50.870;20.682;2022-11-24T08:25:25;-0.10;99.90
21762;DHT22;11203;50.870;20.682;2022-11-24T08:28:01;-0.20;99.90
21762;DHT22;11203;50.870;20.682;2022-11-24T08:30:29;-0.10;99.90
21762;DHT22;11203;50.870;20.682;2022-11-24T08:32:58;0.00;99.90
21762;DHT22;11203;50.870;20.682;2022-11-24T08:35:26;0.10;1.00
21762;DHT22;11203;50.870;20.682;2022-11-24T08:37:53;0.20;1.00
21762;DHT22;11203;50.870;20.682;2022-11-24T08:40:19;0.10;99.90
21762;DHT22;11203;50.870;20.682;2022-11-24T08:42:46;0.50;99.90
21762;DHT22;11203;50.870;20.682;2022-11-24T08:45:12;0.20;99.90
21762;DHT22;11203;50.870;20.682;2022-11-24T08:47:38;0.40;99.90
21762;DHT22;11203;50.870;20.682;2022-11-24T08:50:05;0.40;99.90
21762;DHT22;11203;50.870;20.682;2022-11-24T08:52:31;0.50;99.90
21762;DHT22;11203;50.870;20.682;2022-11-24T08:54:57;0.60;99.90
21762;DHT22;11203;50.870;20.682;2022-11-24T08:57:24;0.60;99.90
21762;DHT22;11203;50.870;20.682;2022-11-24T08:59:49;0.70;99.90
21762;DHT22;11203;50.870;20.682;2022-11-24T09:02:16;0.70;99.90
21762;DHT22;11203;50.870;20.682;2022-11-24T09:04:42;0.80;99.90
21762;DHT22;11203;50.870;20.682;2022-11-24T09:07:09;1.00;99.90
21762;DHT22;11203;50.870;20.682;2022-11-24T09:09:35;0.80;99.90
21762;DHT22;11203;50.870;20.682;2022-11-24T09:12:02;0.90;99.90
21762;DHT22;11203;50.870;20.682;2022-11-24T09:14:28;0.90;99.90
21762;DHT22;11203;50.870;20.682;2022-11-24T09:16:54;0.80;99.90
21762;DHT22;11203;50.870;20.682;2022-11-24T09:19:20;1.10;99.90
21762;DHT22;11203;50.870;20.682;2022-11-24T09:21:47;1.00;99.90
21762;DHT22;11203;50.870;20.682;2022-11-24T09:24:13;1.10;99.90
21762;DHT22;11203;50.870;20.682;2022-11-24T09:26:41;1.20;99.90
21762;DHT22;11203;50.870;20.682;2022-11-24T09:29:08;1.30;99.90
21762;DHT22;11203;50.870;20.682;2022-11-24T09:31:36;1.90;99.90
21762;DHT22;11203;50.870;20.682;2022-11-24T09:34:06;1.10;99.90
21762;DHT22;11203;50.870;20.682;2022-11-24T09:36:33;1.30;99.90
21762;DHT22;11203;50.870;20.682;2022-11-24T09:39:00;1.10;99.90
21762;DHT22;11203;50.870;20.682;2022-11-24T09:41:41;1.20;99.90
21762;DHT22;11203;50.870;20.682;2022-11-24T09:44:32;1.20;99.90
21762;DHT22;11203;50.870;20.682;2022-11-24T09:49:59;1.30;99.90
21762;DHT22;11203;50.870;20.682;2022-11-24T09:55:36;1.30;99.90
21762;DHT22;11203;50.870;20.682;2022-11-24T10:01:41;1.30;99.90
21762;DHT22;11203;50.870;20.682;2022-11-24T10:04:21;1.30;99.90
21762;DHT22;11203;50.870;20.682;2022-11-24T10:09:40;1.20;99.90
21762;DHT22;11203;50.870;20.682;2022-11-24T10:27:27;1.00;99.90
21762;DHT22;11203;50.870;20.682;2022-11-24T10:29:59;1.10;99.90
21762;DHT22;11203;50.870;20.682;2022-11-24T10:32:34;1.10;99.90
21762;DHT22;11203;50.870;20.682;2022-11-24T10:37:44;1.20;99.90
21762;DHT22;11203;50.870;20.682;2022-11-24T10:40:30;1.10;99.90
21762;DHT22;11203;50.870;20.682;2022-11-24T10:42:59;1.10;99.90
21762;DHT22;11203;50.870;20.682;2022-11-24T10:45:27;1.10;99.90
21762;DHT22;11203;50.870;20.682;2022-11-24T10:47:54;1.10;99.90
21762;DHT22;11203;50.870;20.682;2022-11-24T10:53:16;1.20;99.90
21762;DHT22;11203;50.870;20.682;2022-11-24T10:58:26;1.30;99.90
21762;DHT22;11203;50.870;20.682;2022-11-24T11:01:17;1.30;99.90
21762;DHT22;11203;50.870;20.682;2022-11-24T11:03:50;1.20;99.90
21762;DHT22;11203;50.870;20.682;2022-11-24T11:06:23;1.20;99.90
21762;DHT22;11203;50.870;20.682;2022-11-24T11:11:42;1.10;99.90
21762;DHT22;11203;50.870;20.682;2022-11-24T11:14:10;1.20;99.90
21762;DHT22;11203;50.870;20.682;2022-11-24T11:16:51;1.00;99.90
21762;DHT22;11203;50.870;20.682;2022-11-24T11:27:36;1.00;99.90
21762;DHT22;11203;50.870;20.682;2022-11-24T11:30:24;0.80;99.90
21762;DHT22;11203;50.870;20.682;2022-11-24T11:32:59;0.80;99.90
21762;DHT22;11203;50.870;20.682;2022-11-24T11:35:28;0.80;99.90
21762;DHT22;11203;50.870;20.682;2022-11-24T11:38:00;0.90;99.90
21762;DHT22;11203;50.870;20.682;2022-11-24T11:40:29;0.70;99.90
21762;DHT22;11203;50.870;20.682;2022-11-24T11:43:09;0.70;99.90
21762;DHT22;11203;50.870;20.682;2022-11-24T11:45:44;0.70;99.90
21762;DHT22;11203;50.870;20.682;2022-11-24T11:51:04;0.80;99.90
21762;DHT22;11203;50.870;20.682;2022-11-24T11:56:48;0.70;99.90
21762;DHT22;11203;50.870;20.682;2022-11-24T11:59:58;0.70;99.90
21762;DHT22;11203;50.870;20.682;2022-11-24T12:05:23;0.70;99.90
21762;DHT22;11203;50.870;20.682;2022-11-24T12:10:59;0.60;99.90
21762;DHT22;11203;50.870;20.682;2022-11-24T12:31:20;0.50;99.90
21762;DHT22;11203;50.870;20.682;2022-11-24T12:45:57;0.50;99.90
21762;DHT22;11203;50.870;20.682;2022-11-24T12:50:58;0.60;99.90
21762;DHT22;11203;50.870;20.682;2022-11-24T12:53:31;0.60;99.90
21762;DHT22;11203;50.870;20.682;2022-11-24T12:56:04;0.60;99.90
21762;DHT22;11203;50.870;20.682;2022-11-24T12:58:40;0.60;99.90
21762;DHT22;11203;50.870;20.682;2022-11-24T13:09:26;0.60;99.90
21762;DHT22;11203;50.870;20.682;2022-11-24T13:11:53;0.40;99.90
21762;DHT22;11203;50.870;20.682;2022-11-24T13:14:35;0.40;99.90
21762;DHT22;11203;50.870;20.682;2022-11-24T13:17:22;0.30;99.90
21762;DHT22;11203;50.870;20.682;2022-11-24T13:22:51;0.30;99.90
21762;DHT22;11203;50.870;20.682;2022-11-24T13:27:54;0.20;99.90
21762;DHT22;11203;50.870;20.682;2022-11-24T13:35:38;0.10;99.90
21762;DHT22;11203;50.870;20.682;2022-11-24T13:47:04;0.10;99.90
21762;DHT22;11203;50.870;20.682;2022-11-24T13:55:36;0.00;99.90
21762;DHT22;11203;50.870;20.682;2022-11-24T14:04:17;-0.10;99.90
21762;DHT22;11203;50.870;20.682;2022-11-24T14:06:59;-0.10;99.90
21762;DHT22;11203;50.870;20.682;2022-11-24T14:09:44;-0.10;99.90
21762;DHT22;11203;50.870;20.682;2022-11-24T14:12:24;-0.10;99.90
21762;DHT22;11203;50.870;20.682;2022-11-24T14:14:52;-0.10;99.90
21762;DHT22;11203;50.870;20.682;2022-11-24T14:17:26;-0.20;99.90
21762;DHT22;11203;50.870;20.682;2022-11-24T14:19:56;-0.20;99.90
21762;DHT22;11203;50.870;20.682;2022-11-24T14:22:35;-0.20;99.90
21762;DHT22;11203;50.870;20.682;2022-11-24T14:25:26;-0.20;99.90
21762;DHT22;11203;50.870;20.682;2022-11-24T14:27:54;-0.30;99.90
21762;DHT22;11203;50.870;20.682;2022-11-24T14:30:23;-0.20;99.90
21762;DHT22;11203;50.870;20.682;2022-11-24T14:32:54;-0.20;99.90
21762;DHT22;11203;50.870;20.682;2022-11-24T14:35:32;-0.30;99.90
21762;DHT22;11203;50.870;20.682;2022-11-24T14:38:04;-0.30;99.90
21762;DHT22;11203;50.870;20.682;2022-11-24T14:40:38;-0.30;99.90
21762;DHT22;11203;50.870;20.682;2022-11-24T14:43:18;-0.30;99.90
21762;DHT22;11203;50.870;20.682;2022-11-24T14:48:30;-0.30;99.90
21762;DHT22;11203;50.870;20.682;2022-11-24T14:53:49;-0.40;99.90
21762;DHT22;11203;50.870;20.682;2022-11-24T14:58:58;-0.40;99.90
21762;DHT22;11203;50.870;20.682;2022-11-24T15:04:30;-0.40;99.90
21762;DHT22;11203;50.870;20.682;2022-11-24T15:09:54;-0.40;99.90
21762;DHT22;11203;50.870;20.682;2022-11-24T15:15:15;-0.40;99.90
21762;DHT22;11203;50.870;20.682;2022-11-24T15:20:33;-0.40;99.90
21762;DHT22;11203;50.870;20.682;2022-11-24T15:25:46;-0.40;99.90
21762;DHT22;11203;50.870;20.682;2022-11-24T15:28:12;-0.50;99.90
21762;DHT22;11203;50.870;20.682;2022-11-24T15:30:39;-0.40;99.90
21762;DHT22;11203;50.870;20.682;2022-11-24T15:33:16;-0.40;99.90
21762;DHT22;11203;50.870;20.682;2022-11-24T15:35:43;-0.40;99.90
21762;DHT22;11203;50.870;20.682;2022-11-24T15:38:10;-0.40;99.90
21762;DHT22;11203;50.870;20.682;2022-11-24T15:40:37;-0.40;99.90
21762;DHT22;11203;50.870;20.682;2022-11-24T15:46:01;-0.40;99.90
21762;DHT22;11203;50.870;20.682;2022-11-24T15:48:28;-0.50;99.90
21762;DHT22;11203;50.870;20.682;2022-11-24T15:50:55;-0.40;99.90
21762;DHT22;11203;50.870;20.682;2022-11-24T15:55:51;-0.50;99.90
21762;DHT22;11203;50.870;20.682;2022-11-24T15:58:18;-0.50;99.90
21762;DHT22;11203;50.870;20.682;2022-11-24T16:00:44;-0.50;99.90
21762;DHT22;11203;50.870;20.682;2022-11-24T16:03:10;-0.40;99.90
21762;DHT22;11203;50.870;20.682;2022-11-24T16:05:37;-0.50;99.90
21762;DHT22;11203;50.870;20.682;2022-11-24T16:08:05;-0.40;99.90
21762;DHT22;11203;50.870;20.682;2022-11-24T16:10:35;-0.60;99.90
21762;DHT22;11203;50.870;20.682;2022-11-24T16:13:02;-0.60;99.90
21762;DHT22;11203;50.870;20.682;2022-11-24T16:15:28;-0.60;99.90
21762;DHT22;11203;50.870;20.682;2022-11-24T16:17:54;-0.60;99.90
21762;DHT22;11203;50.870;20.682;2022-11-24T16:20:20;-0.60;99.90
21762;DHT22;11203;50.870;20.682;2022-11-24T16:22:47;-0.60;99.90
21762;DHT22;11203;50.870;20.682;2022-11-24T16:25:13;-0.60;99.90
21762;DHT22;11203;50.870;20.682;2022-11-24T16:27:40;-0.70;99.90
21762;DHT22;11203;50.870;20.682;2022-11-24T16:30:07;-0.60;1.00
21762;DHT22;11203;50.870;20.682;2022-11-24T16:32:34;-0.70;1.00
21762;DHT22;11203;50.870;20.682;2022-11-24T16:35:00;-0.60;1.00
21762;DHT22;11203;50.870;20.682;2022-11-24T16:37:26;-0.70;1.00
21762;DHT22;11203;50.870;20.682;2022-11-24T16:39:52;-0.60;1.00
21762;DHT22;11203;50.870;20.682;2022-11-24T16:42:18;-0.70;99.90
21762;DHT22;11203;50.870;20.682;2022-11-24T16:44:44;-0.70;99.90
21762;DHT22;11203;50.870;20.682;2022-11-24T16:47:11;-0.70;1.00
21762;DHT22;11203;50.870;20.682;2022-11-24T16:49:37;-0.60;1.00
21762;DHT22;11203;50.870;20.682;2022-11-24T16:52:04;-0.60;99.90
21762;DHT22;11203;50.870;20.682;2022-11-24T16:54:30;-0.70;99.90
21762;DHT22;11203;50.870;20.682;2022-11-24T16:56:56;-0.70;99.90
21762;DHT22;11203;50.870;20.682;2022-11-24T16:59:22;-0.70;99.90
21762;DHT22;11203;50.870;20.682;2022-11-24T17:01:48;-0.20;1.00
21762;DHT22;11203;50.870;20.682;2022-11-24T17:04:18;-0.70;1.00
21762;DHT22;11203;50.870;20.682;2022-11-24T17:06:44;-0.70;1.00
21762;DHT22;11203;50.870;20.682;2022-11-24T17:09:10;-0.70;1.00
21762;DHT22;11203;50.870;20.682;2022-11-24T17:11:37;-0.70;1.00
21762;DHT22;11203;50.870;20.682;2022-11-24T17:14:02;-0.70;1.00
21762;DHT22;11203;50.870;20.682;2022-11-24T17:16:29;-0.70;99.90
21762;DHT22;11203;50.870;20.682;2022-11-24T17:18:55;-0.70;99.90
21762;DHT22;11203;50.870;20.682;2022-11-24T17:21:25;-0.70;99.90
21762;DHT22;11203;50.870;20.682;2022-11-24T17:23:53;-0.70;1.00
21762;DHT22;11203;50.870;20.682;2022-11-24T17:26:20;-0.70;1.00
21762;DHT22;11203;50.870;20.682;2022-11-24T17:28:46;-0.70;1.00
21762;DHT22;11203;50.870;20.682;2022-11-24T17:33:49;-0.60;1.00
21762;DHT22;11203;50.870;20.682;2022-11-24T17:36:15;-0.60;1.00
21762;DHT22;11203;50.870;20.682;2022-11-24T17:38:42;-0.60;1.00
21762;DHT22;11203;50.870;20.682;2022-11-24T17:41:10;-0.60;1.00
21762;DHT22;11203;50.870;20.682;2022-11-24T17:43:38;-0.60;1.00
21762;DHT22;11203;50.870;20.682;2022-11-24T17:46:04;-0.30;1.00
21762;DHT22;11203;50.870;20.682;2022-11-24T17:48:31;-0.70;1.00
21762;DHT22;11203;50.870;20.682;2022-11-24T17:51:03;-0.70;1.00
21762;DHT22;11203;50.870;20.682;2022-11-24T17:53:37;-0.70;1.00
21762;DHT22;11203;50.870;20.682;2022-11-24T17:56:05;-0.70;1.00
21762;DHT22;11203;50.870;20.682;2022-11-24T17:58:33;-0.70;1.00
21762;DHT22;11203;50.870;20.682;2022-11-24T18:01:00;-0.70;1.00
21762;DHT22;11203;50.870;20.682;2022-11-24T18:03:26;-0.70;1.00
21762;DHT22;11203;50.870;20.682;2022-11-24T18:06:06;-0.50;1.00
21762;DHT22;11203;50.870;20.682;2022-11-24T18:08:38;-0.70;1.00
21762;DHT22;11203;50.870;20.682;2022-11-24T18:13:33;-0.70;1.00
21762;DHT22;11203;50.870;20.682;2022-11-24T18:16:01;-0.60;1.00
21762;DHT22;11203;50.870;20.682;2022-11-24T18:18:27;-0.70;1.00
21762;DHT22;11203;50.870;20.682;2022-11-24T18:20:58;-0.70;1.00
21762;DHT22;11203;50.870;20.682;2022-11-24T18:23:26;-0.70;1.00
21762;DHT22;11203;50.870;20.682;2022-11-24T18:25:54;-0.70;1.00
21762;DHT22;11203;50.870;20.682;2022-11-24T18:28:21;0.30;1.00
21762;DHT22;11203;50.870;20.682;2022-11-24T18:30:48;0.30;1.00